Time;durP1;ratioP1;P1;durP2;ratioP2;P2;SDS_P1;SDS_P2;PMS_P1;PMS_P2;Temp;Humidity;BMP_temperature;BMP_pressure;BME280_temperature;BME280_humidity;BME280_pressure;Samples;Min_cycle;Max_cycle;Signal;HPM_P1;HPM_P2
2023/03/04 00:01:15;;;;;;;25.02;12.18;;;;;;;;;;5081898;28;20036;-57
2023/03/04 00:03:41;;;;;;;31.27;15.02;;;;;;;;;;5096443;27;20070;-57
2023/03/04 00:06:07;;;;;;;34.97;16.35;;;;;;;;;;5079775;28;20055;-57
2023/03/04 00:08:33;;;;;;;20.85;10.88;;;;;;;;;;5080589;28;20120;-57
2023/03/04 00:10:59;;;;;;;23.77;11.70;;;;;;;;;;5082387;28;20041;-57
2023/03/04 00:13:25;;;;;;;33.40;16.33;;;;;;;;;;5080444;28;20044;-57
2023/03/04 00:15:52;;;;;;;31.48;13.73;;;;;;;;;;5080452;27;20052;-57
2023/03/04 00:18:19;;;;;;;36.30;13.98;;;;;;;;;;5078469;28;20040;-57
2023/03/04 00:20:46;;;;;;;21.38;10.68;;;;;;;;;;5079059;28;20047;-57
2023/03/04 00:23:12;;;;;;;24.67;14.90;;;;;;;;;;5079049;28;20035;-56
2023/03/04 00:25:38;;;;;;;36.00;15.88;;;;;;;;;;5079863;28;20048;-57
2023/03/04 00:28:04;;;;;;;27.33;15.18;;;;;;;;;;5077635;28;20035;-58
2023/03/04 00:30:31;;;;;;;27.45;14.23;;;;;;;;;;5075051;28;20542;-57
2023/03/04 00:32:57;;;;;;;34.97;15.13;;;;;;;;;;5076587;28;21605;-57
2023/03/04 00:35:23;;;;;;;33.00;15.93;;;;;;;;;;5073775;28;20095;-57
2023/03/04 00:37:49;;;;;;;25.90;12.95;;;;;;;;;;5075607;28;20527;-57
2023/03/04 00:40:15;;;;;;;31.13;14.63;;;;;;;;;;5073388;28;20047;-57
2023/03/04 00:42:41;;;;;;;25.77;12.27;;;;;;;;;;5076004;28;20641;-57
2023/03/04 00:45:08;;;;;;;32.65;16.42;;;;;;;;;;5075091;28;20045;-57
2023/03/04 00:47:34;;;;;;;27.15;15.07;;;;;;;;;;5072984;28;20097;-57
2023/03/04 00:50:00;;;;;;;25.90;13.88;;;;;;;;;;5076325;28;21002;-57
2023/03/04 00:52:26;;;;;;;41.97;19.20;;;;;;;;;;5080393;28;20048;-57
2023/03/04 00:54:52;;;;;;;24.33;11.30;;;;;;;;;;5080898;28;20051;-57
2023/03/04 00:57:18;;;;;;;31.90;17.20;;;;;;;;;;5078701;28;20142;-58
2023/03/04 00:59:45;;;;;;;30.85;14.43;;;;;;;;;;5080768;28;20036;-57
2023/03/04 01:02:11;;;;;;;45.05;16.33;;;;;;;;;;5077882;28;20055;-57
2023/03/04 01:04:37;;;;;;;25.10;12.20;;;;;;;;;;5079715;28;20067;-57
2023/03/04 01:07:04;;;;;;;30.17;14.75;;;;;;;;;;5076101;28;20505;-58
2023/03/04 01:09:30;;;;;;;34.85;15.63;;;;;;;;;;5077352;28;20105;-57
2023/03/04 01:11:56;;;;;;;27.75;14.75;;;;;;;;;;5075790;28;20134;-57
2023/03/04 01:14:22;;;;;;;34.90;16.88;;;;;;;;;;5077679;28;20071;-57
2023/03/04 01:16:49;;;;;;;35.80;17.83;;;;;;;;;;5078535;28;20119;-58
2023/03/04 01:19:15;;;;;;;36.50;15.35;;;;;;;;;;5082966;28;20122;-57
2023/03/04 01:21:41;;;;;;;21.60;10.55;;;;;;;;;;5072530;28;20048;-57
2023/03/04 01:24:08;;;;;;;30.45;14.57;;;;;;;;;;5081538;28;20093;-57
2023/03/04 01:26:34;;;;;;;36.08;17.20;;;;;;;;;;5078742;28;20129;-57
2023/03/04 01:29:00;;;;;;;38.60;17.10;;;;;;;;;;5075127;28;20119;-57
2023/03/04 01:31:26;;;;;;;32.42;15.27;;;;;;;;;;5072492;28;20253;-57
2023/03/04 01:33:52;;;;;;;22.38;13.43;;;;;;;;;;5073050;28;20103;-58
2023/03/04 01:36:18;;;;;;;30.52;15.15;;;;;;;;;;5076648;28;20037;-58
2023/03/04 01:38:44;;;;;;;34.15;15.40;;;;;;;;;;5090659;27;20601;-57
2023/03/04 01:41:11;;;;;;;30.40;14.75;;;;;;;;;;5074744;28;20048;-58
2023/03/04 01:43:38;;;;;;;25.20;13.57;;;;;;;;;;5073624;28;20526;-57
2023/03/04 01:46:04;;;;;;;42.33;18.70;;;;;;;;;;5073854;28;20123;-57
2023/03/04 01:48:32;;;;;;;31.52;12.80;;;;;;;;;;5074708;28;20071;-57
2023/03/04 01:51:01;;;;;;;32.95;15.85;;;;;;;;;;5081495;28;20108;-57
2023/03/04 01:53:28;;;;;;;18.23;11.00;;;;;;;;;;5080420;28;20051;-57
2023/03/04 01:55:56;;;;;;;38.00;16.38;;;;;;;;;;5080052;28;20808;-57
2023/03/04 01:58:24;;;;;;;20.05;8.95;;;;;;;;;;5081319;28;20534;-57
2023/03/04 02:00:50;;;;;;;32.90;16.63;;;;;;;;;;5078343;28;20272;-57
2023/03/04 02:03:18;;;;;;;23.55;12.32;;;;;;;;;;5079955;28;20037;-57
2023/03/04 02:05:46;;;;;;;30.48;14.75;;;;;;;;;;5076878;28;20077;-57
2023/03/04 02:08:13;;;;;;;38.17;16.63;;;;;;;;;;5078175;28;20041;-57
2023/03/04 02:10:41;;;;;;;21.70;13.27;;;;;;;;;;5078946;28;20778;-58
2023/03/04 02:13:07;;;;;;;29.05;13.25;;;;;;;;;;5080862;28;20049;-57
2023/03/04 02:15:33;;;;;;;31.20;12.77;;;;;;;;;;5076169;28;20580;-57
2023/03/04 02:17:59;;;;;;;30.65;14.93;;;;;;;;;;5079592;28;20036;-57
2023/03/04 02:20:25;;;;;;;30.33;12.10;;;;;;;;;;5077291;28;20042;-57
2023/03/04 02:22:57;;;;;;;30.73;15.13;;;;;;;;;;5077558;28;20090;-57
2023/03/04 02:25:25;;;;;;;25.23;11.32;;;;;;;;;;5078285;28;20538;-57
2023/03/04 02:27:51;;;;;;;19.33;11.43;;;;;;;;;;5077141;28;20048;-57
2023/03/04 02:30:20;;;;;;;17.42;8.02;;;;;;;;;;5080725;28;20040;-57
2023/03/04 02:32:46;;;;;;;26.95;14.07;;;;;;;;;;5077811;27;20048;-57
2023/03/04 02:35:18;;;;;;;33.15;14.15;;;;;;;;;;5071868;28;20044;-57
2023/03/04 02:37:45;;;;;;;27.20;13.93;;;;;;;;;;5069484;28;20807;-57
2023/03/04 02:40:15;;;;;;;26.75;15.70;;;;;;;;;;5077133;28;20595;-57
2023/03/04 02:42:42;;;;;;;31.50;13.45;;;;;;;;;;5079994;28;20056;-57
2023/03/04 02:45:28;;;;;;;28.05;15.25;;;;;;;;;;5077978;28;20509;-57
2023/03/04 02:47:54;;;;;;;25.83;12.00;;;;;;;;;;5073009;28;20047;-57
2023/03/04 02:50:21;;;;;;;29.50;15.02;;;;;;;;;;5071923;28;20064;-57
2023/03/04 02:52:47;;;;;;;21.45;12.30;;;;;;;;;;5072941;28;20774;-57
2023/03/04 02:55:13;;;;;;;19.85;12.07;;;;;;;;;;5070826;28;20045;-57
2023/03/04 02:57:39;;;;;;;22.60;11.68;;;;;;;;;;5071513;28;20299;-57
2023/03/04 03:00:05;;;;;;;18.95;9.55;;;;;;;;;;5079187;27;20611;-57
2023/03/04 03:02:31;;;;;;;28.85;11.85;;;;;;;;;;5074353;28;20903;-57
2023/03/04 03:04:57;;;;;;;23.63;12.27;;;;;;;;;;5080479;28;20094;-57
2023/03/04 03:07:23;;;;;;;25.85;11.48;;;;;;;;;;5075771;28;20127;-57
2023/03/04 03:09:50;;;;;;;18.27;9.18;;;;;;;;;;5075605;28;20044;-57
2023/03/04 03:12:16;;;;;;;22.30;13.27;;;;;;;;;;5075019;28;20041;-57
2023/03/04 03:14:42;;;;;;;22.45;11.95;;;;;;;;;;5077125;28;20778;-57
2023/03/04 03:17:08;;;;;;;23.23;13.00;;;;;;;;;;5079427;28;20530;-57
2023/03/04 03:19:34;;;;;;;27.42;12.63;;;;;;;;;;5078647;28;20036;-57
2023/03/04 03:22:00;;;;;;;30.65;12.32;;;;;;;;;;5074005;28;20173;-57
2023/03/04 03:24:26;;;;;;;22.02;11.90;;;;;;;;;;5093225;27;20043;-57
2023/03/04 03:26:52;;;;;;;24.13;11.70;;;;;;;;;;5077344;28;20135;-57
2023/03/04 03:29:18;;;;;;;25.23;13.43;;;;;;;;;;5077116;28;20135;-57
2023/03/04 03:31:44;;;;;;;19.70;12.73;;;;;;;;;;5073951;28;20545;-57
2023/03/04 03:34:10;;;;;;;24.98;12.55;;;;;;;;;;5076982;28;20080;-57
2023/03/04 03:36:36;;;;;;;21.73;12.55;;;;;;;;;;5075428;28;20041;-57
2023/03/04 03:39:02;;;;;;;23.17;13.70;;;;;;;;;;5068562;28;20043;-57
2023/03/04 03:41:29;;;;;;;23.45;14.48;;;;;;;;;;5075972;28;20044;-57
2023/03/04 03:43:55;;;;;;;12.75;7.82;;;;;;;;;;5072492;28;20036;-57
2023/03/04 03:46:22;;;;;;;21.27;10.52;;;;;;;;;;5076833;28;20040;-57
2023/03/04 03:48:48;;;;;;;17.80;7.85;;;;;;;;;;5083086;28;20052;-57
2023/03/04 03:51:14;;;;;;;22.55;10.40;;;;;;;;;;5079237;28;20040;-57
2023/03/04 03:53:40;;;;;;;28.35;13.52;;;;;;;;;;5081529;28;20106;-57
2023/03/04 03:56:06;;;;;;;21.30;11.13;;;;;;;;;;5079218;28;20044;-57
2023/03/04 03:58:32;;;;;;;20.25;11.45;;;;;;;;;;5082744;28;20516;-57
2023/03/04 04:00:58;;;;;;;24.83;14.15;;;;;;;;;;5078501;27;20879;-57
2023/03/04 04:03:24;;;;;;;27.98;12.45;;;;;;;;;;5081268;28;20036;-58
2023/03/04 04:05:50;;;;;;;24.27;12.75;;;;;;;;;;5097688;27;20105;-58
2023/03/04 04:08:17;;;;;;;26.98;15.07;;;;;;;;;;5083001;28;20044;-57
2023/03/04 04:10:43;;;;;;;21.83;11.30;;;;;;;;;;5079382;28;20102;-57
2023/03/04 04:13:09;;;;;;;17.17;9.35;;;;;;;;;;5080812;28;20434;-57
2023/03/04 04:15:37;;;;;;;22.17;11.80;;;;;;;;;;5080882;28;20143;-57
2023/03/04 04:18:03;;;;;;;26.63;13.30;;;;;;;;;;5080214;28;20606;-57
2023/03/04 04:20:29;;;;;;;20.42;11.77;;;;;;;;;;5081180;28;20545;-57
2023/03/04 04:22:56;;;;;;;21.02;12.55;;;;;;;;;;5083341;28;20196;-57
2023/03/04 04:25:22;;;;;;;17.67;9.52;;;;;;;;;;5080493;28;20043;-58
2023/03/04 04:27:48;;;;;;;20.88;11.20;;;;;;;;;;5080846;28;20051;-57
2023/03/04 04:30:14;;;;;;;18.88;11.00;;;;;;;;;;5079642;28;20049;-57
2023/03/04 04:32:40;;;;;;;18.63;10.55;;;;;;;;;;5081959;28;20857;-57
2023/03/04 04:35:07;;;;;;;22.85;10.43;;;;;;;;;;5073572;28;20131;-57
2023/03/04 04:37:33;;;;;;;23.23;11.85;;;;;;;;;;5071745;28;20076;-57
2023/03/04 04:39:59;;;;;;;15.90;9.52;;;;;;;;;;5078469;28;20047;-57
2023/03/04 04:42:25;;;;;;;18.48;9.70;;;;;;;;;;5077774;27;20470;-57
2023/03/04 04:44:52;;;;;;;21.38;11.68;;;;;;;;;;5078738;27;22479;-57
2023/03/04 04:47:18;;;;;;;16.13;7.72;;;;;;;;;;5081244;28;20049;-57
2023/03/04 04:49:44;;;;;;;25.20;10.90;;;;;;;;;;5076237;28;20471;-58
2023/03/04 04:52:10;;;;;;;17.88;8.73;;;;;;;;;;5080578;28;20102;-57
2023/03/04 04:54:36;;;;;;;27.35;11.93;;;;;;;;;;5080240;28;20068;-57
2023/03/04 04:57:02;;;;;;;20.02;10.68;;;;;;;;;;5082990;28;20474;-57
2023/03/04 04:59:29;;;;;;;21.70;8.73;;;;;;;;;;5081076;28;20044;-57
2023/03/04 05:01:55;;;;;;;19.10;10.13;;;;;;;;;;5078563;28;20134;-57
2023/03/04 05:04:21;;;;;;;17.92;9.52;;;;;;;;;;5079286;28;20039;-57
2023/03/04 05:06:47;;;;;;;8.98;5.63;;;;;;;;;;5077906;28;20040;-57
2023/03/04 05:09:13;;;;;;;17.20;10.10;;;;;;;;;;5077809;28;20047;-57
2023/03/04 05:11:39;;;;;;;18.20;9.63;;;;;;;;;;5077969;28;20195;-57
2023/03/04 05:14:05;;;;;;;17.52;9.85;;;;;;;;;;5079152;28;20097;-57
2023/03/04 05:16:32;;;;;;;21.63;10.55;;;;;;;;;;5078511;28;20040;-57
2023/03/04 05:18:58;;;;;;;15.02;8.82;;;;;;;;;;5078861;28;20068;-57
2023/03/04 05:21:24;;;;;;;19.02;10.50;;;;;;;;;;5080911;28;20040;-57
2023/03/04 05:23:51;;;;;;;14.43;8.07;;;;;;;;;;5079667;28;20043;-57
2023/03/04 05:26:17;;;;;;;17.38;8.25;;;;;;;;;;5078318;28;20102;-57
2023/03/04 05:28:44;;;;;;;16.90;9.60;;;;;;;;;;5080085;28;20618;-57
2023/03/04 05:31:10;;;;;;;16.85;8.65;;;;;;;;;;5079655;28;20048;-57
2023/03/04 05:33:37;;;;;;;16.20;9.38;;;;;;;;;;5077740;28;20044;-57
2023/03/04 05:36:04;;;;;;;16.33;9.13;;;;;;;;;;5076669;28;20518;-57
2023/03/04 05:38:30;;;;;;;16.13;9.30;;;;;;;;;;5078101;28;20523;-57
2023/03/04 05:40:57;;;;;;;12.52;7.90;;;;;;;;;;5073952;28;20936;-57
2023/03/04 05:43:24;;;;;;;13.30;8.23;;;;;;;;;;5074299;28;20040;-57
2023/03/04 05:45:50;;;;;;;18.85;9.45;;;;;;;;;;5075680;28;20041;-57
2023/03/04 05:48:16;;;;;;;19.00;9.77;;;;;;;;;;5077150;28;20584;-57
2023/03/04 05:50:42;;;;;;;13.98;6.93;;;;;;;;;;5078286;28;20041;-57
2023/03/04 05:53:08;;;;;;;17.08;9.43;;;;;;;;;;5078366;28;20040;-57
2023/03/04 05:55:34;;;;;;;9.75;6.45;;;;;;;;;;5079371;28;20834;-57
2023/03/04 05:58:00;;;;;;;17.08;9.65;;;;;;;;;;5081709;28;20048;-57
2023/03/04 06:00:26;;;;;;;13.30;7.70;;;;;;;;;;5077304;28;20524;-57
2023/03/04 06:02:52;;;;;;;17.98;8.30;;;;;;;;;;5078084;28;20055;-57
2023/03/04 06:05:19;;;;;;;13.25;8.13;;;;;;;;;;5080313;28;20037;-57
2023/03/04 06:07:45;;;;;;;15.93;7.32;;;;;;;;;;5078693;27;20036;-57
2023/03/04 06:10:15;;;;;;;14.90;8.02;;;;;;;;;;5078440;28;20045;-57
2023/03/04 06:12:41;;;;;;;11.68;6.88;;;;;;;;;;5080548;28;20147;-57
2023/03/04 06:15:08;;;;;;;18.15;6.80;;;;;;;;;;5077235;28;20076;-57
2023/03/04 06:17:34;;;;;;;22.35;7.03;;;;;;;;;;5077153;28;20091;-57
2023/03/04 06:20:01;;;;;;;14.98;8.85;;;;;;;;;;5080347;28;20040;-57
2023/03/04 06:22:27;;;;;;;14.10;8.50;;;;;;;;;;5076177;28;20094;-57
2023/03/04 06:24:53;;;;;;;14.68;8.85;;;;;;;;;;5075778;28;20070;-57
2023/03/04 06:27:19;;;;;;;12.45;7.03;;;;;;;;;;5076509;28;20536;-57
2023/03/04 06:29:45;;;;;;;11.88;6.82;;;;;;;;;;5077763;28;20040;-57
2023/03/04 06:32:11;;;;;;;10.80;6.80;;;;;;;;;;5074687;28;20041;-57
2023/03/04 06:34:37;;;;;;;12.68;8.50;;;;;;;;;;5074663;28;20044;-57
2023/03/04 06:37:03;;;;;;;12.82;7.53;;;;;;;;;;5072788;28;20078;-57
2023/03/04 06:39:30;;;;;;;12.73;7.07;;;;;;;;;;5072800;28;20735;-57
2023/03/04 06:41:56;;;;;;;14.43;7.22;;;;;;;;;;5076898;28;21174;-57
2023/03/04 06:44:22;;;;;;;15.30;8.10;;;;;;;;;;5078450;28;20068;-57
2023/03/04 06:46:48;;;;;;;7.70;5.22;;;;;;;;;;5073578;28;20070;-58
2023/03/04 06:49:14;;;;;;;17.67;8.45;;;;;;;;;;5070150;28;20495;-57
2023/03/04 06:51:40;;;;;;;9.77;4.18;;;;;;;;;;5072576;28;20120;-58
2023/03/04 06:54:06;;;;;;;13.75;7.38;;;;;;;;;;5072154;28;20071;-57
2023/03/04 06:56:32;;;;;;;13.43;6.57;;;;;;;;;;5072402;28;20048;-57
2023/03/04 06:58:58;;;;;;;13.27;6.68;;;;;;;;;;5073168;28;20558;-57
2023/03/04 07:01:26;;;;;;;13.77;8.45;;;;;;;;;;5067569;28;20044;-57
2023/03/04 07:03:52;;;;;;;15.88;7.70;;;;;;;;;;5065678;27;20041;-58
2023/03/04 07:06:20;;;;;;;12.15;6.55;;;;;;;;;;5069470;28;20479;-57
2023/03/04 07:08:46;;;;;;;14.00;8.23;;;;;;;;;;5075686;28;20557;-57
2023/03/04 07:11:12;;;;;;;15.02;7.78;;;;;;;;;;5071168;28;20049;-57
2023/03/04 07:13:39;;;;;;;12.18;7.90;;;;;;;;;;5077241;28;20082;-57
2023/03/04 07:16:06;;;;;;;12.52;7.15;;;;;;;;;;5072896;28;20055;-57
2023/03/04 07:18:32;;;;;;;9.15;5.13;;;;;;;;;;5076953;28;20132;-58
2023/03/04 07:20:58;;;;;;;7.78;4.78;;;;;;;;;;5072177;28;20167;-57
2023/03/04 07:23:24;;;;;;;13.70;8.68;;;;;;;;;;5083102;28;20044;-58
2023/03/04 07:25:50;;;;;;;15.57;8.80;;;;;;;;;;5080766;27;20133;-57
2023/03/04 07:28:16;;;;;;;18.73;9.48;;;;;;;;;;5080407;28;20102;-57
2023/03/04 07:30:43;;;;;;;15.00;9.52;;;;;;;;;;5079499;28;20071;-57
2023/03/04 07:33:09;;;;;;;21.05;9.50;;;;;;;;;;5082241;27;20041;-57
2023/03/04 07:35:35;;;;;;;15.45;9.60;;;;;;;;;;5075847;28;20116;-57
2023/03/04 07:38:01;;;;;;;15.45;9.32;;;;;;;;;;5080967;28;20557;-58
2023/03/04 07:40:27;;;;;;;18.75;8.63;;;;;;;;;;5078424;28;20044;-57
2023/03/04 07:42:54;;;;;;;15.38;7.20;;;;;;;;;;5078692;28;20049;-58
2023/03/04 07:45:21;;;;;;;15.00;8.45;;;;;;;;;;5081027;28;20051;-57
2023/03/04 07:47:47;;;;;;;15.30;8.00;;;;;;;;;;5079750;28;20115;-58
2023/03/04 07:50:13;;;;;;;11.38;7.43;;;;;;;;;;5081337;28;20032;-57
2023/03/04 07:52:43;;;;;;;11.77;6.93;;;;;;;;;;5082990;28;20044;-57
2023/03/04 07:55:10;;;;;;;20.52;9.48;;;;;;;;;;5082083;28;20040;-57
2023/03/04 07:57:38;;;;;;;14.70;7.38;;;;;;;;;;5079560;28;20102;-57
2023/03/04 08:00:04;;;;;;;15.30;6.80;;;;;;;;;;5079634;28;20041;-57
2023/03/04 08:02:30;;;;;;;18.10;8.52;;;;;;;;;;5081462;28;20502;-57
2023/03/04 08:04:56;;;;;;;16.83;9.18;;;;;;;;;;5074342;28;20083;-58
2023/03/04 08:07:23;;;;;;;16.80;9.25;;;;;;;;;;5079101;28;20648;-57
2023/03/04 08:09:49;;;;;;;14.98;7.45;;;;;;;;;;5079162;28;20534;-57
2023/03/04 08:12:15;;;;;;;17.33;9.45;;;;;;;;;;5079400;28;20040;-57
2023/03/04 08:14:41;;;;;;;18.90;11.57;;;;;;;;;;5077472;28;20503;-57
2023/03/04 08:17:08;;;;;;;17.48;8.50;;;;;;;;;;5079147;28;20287;-57
2023/03/04 08:19:35;;;;;;;16.55;10.20;;;;;;;;;;5081606;28;20152;-58
2023/03/04 08:22:01;;;;;;;13.10;7.13;;;;;;;;;;5082010;28;20396;-58
2023/03/04 08:24:27;;;;;;;15.57;8.82;;;;;;;;;;5080701;28;20521;-57
2023/03/04 08:26:54;;;;;;;12.82;6.75;;;;;;;;;;5076443;28;20040;-57
2023/03/04 08:29:22;;;;;;;17.63;9.20;;;;;;;;;;5074962;28;20051;-58
2023/03/04 08:31:49;;;;;;;21.45;8.48;;;;;;;;;;5070985;28;20044;-58
2023/03/04 08:34:15;;;;;;;16.70;9.88;;;;;;;;;;5069354;28;20063;-57
2023/03/04 08:36:41;;;;;;;14.82;7.07;;;;;;;;;;5068515;28;20048;-57
2023/03/04 08:39:08;;;;;;;20.60;9.75;;;;;;;;;;5081809;28;20132;-58
2023/03/04 08:41:34;;;;;;;12.52;8.55;;;;;;;;;;5078887;28;20124;-58
2023/03/04 08:44:01;;;;;;;17.25;9.73;;;;;;;;;;5079985;27;20040;-57
2023/03/04 08:46:27;;;;;;;17.30;8.65;;;;;;;;;;5080311;28;21025;-59
2023/03/04 08:48:53;;;;;;;22.05;9.65;;;;;;;;;;5080482;28;20032;-57
2023/03/04 08:51:19;;;;;;;14.23;7.85;;;;;;;;;;5079771;28;20044;-58
2023/03/04 08:53:45;;;;;;;21.85;8.88;;;;;;;;;;5076567;28;20084;-58
2023/03/04 08:56:12;;;;;;;20.48;10.30;;;;;;;;;;5079320;28;20469;-57
2023/03/04 08:58:38;;;;;;;18.92;10.23;;;;;;;;;;5078185;28;20044;-57
2023/03/04 09:01:05;;;;;;;13.50;7.68;;;;;;;;;;5069923;28;20044;-57
2023/03/04 09:03:31;;;;;;;7.82;5.32;;;;;;;;;;5070219;28;20076;-58
2023/03/04 09:05:57;;;;;;;18.95;10.43;;;;;;;;;;5067215;28;21058;-58
2023/03/04 09:08:23;;;;;;;14.75;10.13;;;;;;;;;;5072965;28;20142;-58
2023/03/04 09:10:52;;;;;;;19.17;7.60;;;;;;;;;;5067055;28;20040;-57
2023/03/04 09:13:18;;;;;;;16.63;10.23;;;;;;;;;;5069243;28;20052;-58
2023/03/04 09:15:49;;;;;;;22.88;10.93;;;;;;;;;;5072237;28;20059;-57
2023/03/04 09:18:16;;;;;;;14.00;9.68;;;;;;;;;;5062092;28;20068;-58
2023/03/04 09:20:42;;;;;;;19.45;9.23;;;;;;;;;;5067548;28;20148;-58
2023/03/04 09:23:09;;;;;;;13.00;7.20;;;;;;;;;;5064707;28;20432;-58
2023/03/04 09:25:35;;;;;;;17.25;9.40;;;;;;;;;;5069255;28;20615;-58
2023/03/04 09:28:01;;;;;;;17.27;7.20;;;;;;;;;;5078171;28;20086;-58
2023/03/04 09:30:28;;;;;;;18.70;9.50;;;;;;;;;;5078811;28;20071;-58
2023/03/04 09:32:54;;;;;;;15.30;8.73;;;;;;;;;;5075331;28;20072;-58
2023/03/04 09:35:20;;;;;;;21.73;8.23;;;;;;;;;;5077556;28;20126;-58
2023/03/04 09:37:47;;;;;;;23.25;8.88;;;;;;;;;;5079003;28;20094;-58
2023/03/04 09:40:21;;;;;;;10.13;5.93;;;;;;;;;;5076621;28;20048;-58
2023/03/04 09:42:49;;;;;;;8.70;5.22;;;;;;;;;;5071144;28;20123;-58
2023/03/04 09:45:20;;;;;;;16.27;7.72;;;;;;;;;;5078275;28;20887;-57
2023/03/04 09:47:48;;;;;;;13.27;7.78;;;;;;;;;;5076879;28;20040;-57
2023/03/04 09:50:14;;;;;;;10.13;5.82;;;;;;;;;;5078544;28;20110;-58
2023/03/04 09:52:40;;;;;;;13.43;6.75;;;;;;;;;;5080375;28;20074;-58
2023/03/04 09:55:25;;;;;;;21.33;9.32;;;;;;;;;;5078162;28;20617;-58
2023/03/04 09:57:57;;;;;;;20.30;8.35;;;;;;;;;;5078257;28;20036;-58
2023/03/04 10:00:26;;;;;;;16.65;8.38;;;;;;;;;;5077098;28;20209;-60
2023/03/04 10:03:10;;;;;;;17.75;8.05;;;;;;;;;;5070440;28;20041;-58
2023/03/04 10:05:59;;;;;;;15.40;8.23;;;;;;;;;;5073222;28;20625;-58
2023/03/04 10:08:43;;;;;;;13.05;7.85;;;;;;;;;;5076979;28;20052;-58
2023/03/04 10:11:14;;;;;;;22.38;8.85;;;;;;;;;;5072987;28;20040;-57
2023/03/04 10:13:46;;;;;;;13.15;7.13;;;;;;;;;;5076314;28;20082;-57
2023/03/04 10:16:16;;;;;;;11.73;7.80;;;;;;;;;;5081808;28;20053;-57
2023/03/04 10:18:45;;;;;;;10.55;5.15;;;;;;;;;;5076431;28;20044;-58
2023/03/04 10:21:23;;;;;;;12.52;6.20;;;;;;;;;;5072997;28;20039;-57
2023/03/04 10:23:49;;;;;;;13.32;6.05;;;;;;;;;;5075467;28;20733;-58
2023/03/04 10:26:19;;;;;;;11.00;7.63;;;;;;;;;;5072180;28;20610;-58
2023/03/04 10:28:46;;;;;;;10.23;5.63;;;;;;;;;;5074004;28;20044;-58
2023/03/04 10:31:12;;;;;;;14.20;5.63;;;;;;;;;;5081872;28;20587;-58
2023/03/04 10:33:39;;;;;;;14.95;7.03;;;;;;;;;;5080378;28;20438;-58
2023/03/04 10:36:12;;;;;;;15.15;8.95;;;;;;;;;;5082584;28;20924;-58
2023/03/04 10:38:39;;;;;;;14.70;7.82;;;;;;;;;;5082114;28;20075;-58
2023/03/04 10:41:21;;;;;;;16.67;7.85;;;;;;;;;;5082327;28;20048;-57
2023/03/04 10:44:00;;;;;;;13.10;7.57;;;;;;;;;;5080840;28;20041;-58
2023/03/04 10:46:26;;;;;;;11.70;8.00;;;;;;;;;;5079889;28;20047;-61
2023/03/04 10:48:53;;;;;;;18.75;6.65;;;;;;;;;;5083102;28;20317;-58
2023/03/04 10:51:23;;;;;;;10.25;5.60;;;;;;;;;;5081470;28;20045;-58
2023/03/04 10:53:57;;;;;;;14.52;8.30;;;;;;;;;;5078932;28;20036;-58
2023/03/04 10:56:32;;;;;;;18.60;8.10;;;;;;;;;;5082654;28;20577;-58
2023/03/04 10:59:28;;;;;;;16.55;8.30;;;;;;;;;;5085187;28;20043;-57
2023/03/04 11:01:54;;;;;;;17.80;9.93;;;;;;;;;;5079615;28;20556;-58
2023/03/04 11:04:24;;;;;;;20.67;10.45;;;;;;;;;;5082741;28;20497;-58
2023/03/04 11:06:51;;;;;;;19.95;8.52;;;;;;;;;;5078177;28;20044;-58
2023/03/04 11:09:27;;;;;;;22.30;10.68;;;;;;;;;;5081095;28;20044;-58
2023/03/04 11:11:54;;;;;;;18.50;8.95;;;;;;;;;;5081570;28;20044;-58
2023/03/04 11:14:40;;;;;;;20.13;10.68;;;;;;;;;;5083095;28;20049;-58
2023/03/04 11:17:21;;;;;;;19.98;7.93;;;;;;;;;;5085322;28;20040;-59
2023/03/04 11:19:50;;;;;;;22.10;11.43;;;;;;;;;;5085919;28;20044;-58
2023/03/04 11:22:17;;;;;;;22.17;10.30;;;;;;;;;;5082759;28;20036;-58
2023/03/04 11:24:43;;;;;;;22.35;9.80;;;;;;;;;;5082669;28;20533;-58
2023/03/04 11:27:20;;;;;;;21.38;7.60;;;;;;;;;;5084836;28;20113;-58
2023/03/04 11:30:00;;;;;;;15.82;8.10;;;;;;;;;;5078269;28;20526;-58
2023/03/04 11:32:34;;;;;;;12.40;6.65;;;;;;;;;;5082296;28;20080;-58
2023/03/04 11:35:23;;;;;;;16.80;8.43;;;;;;;;;;5083594;28;20044;-58
2023/03/04 11:37:57;;;;;;;21.73;8.88;;;;;;;;;;5085079;28;20039;-58
2023/03/04 11:40:28;;;;;;;14.38;7.53;;;;;;;;;;5083780;28;20817;-58
2023/03/04 11:43:02;;;;;;;9.38;5.18;;;;;;;;;;5082726;28;20041;-58
2023/03/04 11:45:47;;;;;;;18.23;10.23;;;;;;;;;;5084139;28;20040;-58
2023/03/04 11:48:19;;;;;;;13.52;7.13;;;;;;;;;;5084287;28;20040;-58
2023/03/04 11:50:50;;;;;;;16.58;4.53;;;;;;;;;;5082761;28;20523;-58
2023/03/04 11:53:25;;;;;;;14.82;7.60;;;;;;;;;;5080533;28;20044;-58
2023/03/04 11:56:00;;;;;;;10.45;6.95;;;;;;;;;;5083403;28;20611;-58
2023/03/04 11:58:30;;;;;;;21.40;7.35;;;;;;;;;;5085067;28;20036;-58
2023/03/04 12:01:02;;;;;;;15.18;6.03;;;;;;;;;;5081093;28;20545;-58
2023/03/04 12:03:31;;;;;;;11.68;6.60;;;;;;;;;;5077018;28;20048;-58
2023/03/04 12:06:12;;;;;;;9.15;5.32;;;;;;;;;;5084036;28;20036;-58
2023/03/04 12:08:56;;;;;;;16.70;6.80;;;;;;;;;;5082301;28;20040;-58
2023/03/04 12:11:55;;;;;;;14.63;6.32;;;;;;;;;;5083905;28;20113;-58
2023/03/04 12:14:36;;;;;;;12.95;6.32;;;;;;;;;;5064822;28;20087;-58
2023/03/04 12:17:10;;;;;;;9.50;5.93;;;;;;;;;;5079314;28;20044;-58
2023/03/04 12:19:56;;;;;;;15.50;6.75;;;;;;;;;;5082440;27;20140;-57
2023/03/04 12:22:43;;;;;;;12.43;6.80;;;;;;;;;;5065547;28;20048;-58
2023/03/04 12:25:18;;;;;;;19.60;8.43;;;;;;;;;;5082570;28;20048;-58
2023/03/04 12:27:53;;;;;;;15.88;4.82;;;;;;;;;;5078266;28;20040;-58
2023/03/04 12:30:20;;;;;;;19.42;5.82;;;;;;;;;;5079461;28;20083;-58
2023/03/04 12:32:49;;;;;;;16.52;6.40;;;;;;;;;;5079974;28;20036;-57
2023/03/04 12:35:37;;;;;;;16.67;7.03;;;;;;;;;;5078575;28;20115;-58
2023/03/04 12:38:17;;;;;;;26.92;9.48;;;;;;;;;;5076185;28;20044;-58
2023/03/04 12:40:55;;;;;;;13.25;6.47;;;;;;;;;;5081673;27;20904;-57
2023/03/04 12:43:24;;;;;;;13.00;6.63;;;;;;;;;;5075369;28;20036;-58
2023/03/04 12:45:50;;;;;;;15.00;5.35;;;;;;;;;;5081182;28;20094;-58
2023/03/04 12:48:29;;;;;;;9.13;4.50;;;;;;;;;;5079421;28;20044;-57
2023/03/04 12:51:14;;;;;;;14.02;5.72;;;;;;;;;;5078917;28;20040;-58
2023/03/04 12:53:42;;;;;;;16.88;7.00;;;;;;;;;;5072123;28;20534;-58
2023/03/04 12:56:18;;;;;;;10.57;5.82;;;;;;;;;;5079984;28;20040;-58
2023/03/04 12:58:44;;;;;;;12.93;6.50;;;;;;;;;;5079030;28;20051;-57
2023/03/04 13:01:15;;;;;;;21.05;8.57;;;;;;;;;;5079453;28;20048;-57
2023/03/04 13:03:46;;;;;;;21.60;7.35;;;;;;;;;;5082313;28;20040;-57
2023/03/04 13:06:16;;;;;;;9.83;4.87;;;;;;;;;;5079710;28;20063;-57
2023/03/04 13:08:48;;;;;;;12.73;5.75;;;;;;;;;;5082482;28;20072;-58
2023/03/04 13:11:27;;;;;;;13.65;5.55;;;;;;;;;;5083336;27;20051;-58
2023/03/04 13:14:02;;;;;;;12.10;5.22;;;;;;;;;;5074480;28;20053;-57
2023/03/04 13:16:40;;;;;;;21.45;6.40;;;;;;;;;;5078366;28;20569;-57
2023/03/04 13:19:25;;;;;;;10.20;5.47;;;;;;;;;;5081296;28;20044;-58
2023/03/04 13:21:53;;;;;;;9.68;6.43;;;;;;;;;;5077065;28;20047;-57
2023/03/04 13:24:39;;;;;;;13.02;6.07;;;;;;;;;;5081363;28;20055;-58
2023/03/04 13:27:26;;;;;;;13.55;5.13;;;;;;;;;;5080063;28;20544;-57
2023/03/04 13:29:52;;;;;;;12.68;5.25;;;;;;;;;;5077542;28;20076;-58
2023/03/04 13:32:38;;;;;;;11.77;5.95;;;;;;;;;;5080803;28;20044;-57
2023/03/04 13:35:23;;;;;;;14.32;5.28;;;;;;;;;;5076429;28;20119;-58
2023/03/04 13:37:58;;;;;;;14.63;5.93;;;;;;;;;;5081590;28;20040;-59
2023/03/04 13:40:34;;;;;;;12.13;5.43;;;;;;;;;;5097594;27;20044;-58
2023/03/04 13:43:19;;;;;;;10.73;5.07;;;;;;;;;;5080240;28;20044;-58
2023/03/04 13:45:45;;;;;;;8.30;4.97;;;;;;;;;;5077509;28;20050;-58
2023/03/04 13:48:30;;;;;;;11.63;5.90;;;;;;;;;;5080937;28;20048;-58
2023/03/04 13:50:57;;;;;;;14.40;5.93;;;;;;;;;;5077146;28;20163;-57
2023/03/04 13:53:38;;;;;;;11.00;5.35;;;;;;;;;;5075334;28;20121;-57
2023/03/04 13:56:08;;;;;;;13.45;5.32;;;;;;;;;;5077737;28;20049;-57
2023/03/04 13:58:34;;;;;;;9.02;5.15;;;;;;;;;;5073809;28;20036;-57
2023/03/04 14:01:00;;;;;;;10.48;5.07;;;;;;;;;;5081064;28;20543;-57
2023/03/04 14:03:28;;;;;;;12.25;4.35;;;;;;;;;;5078682;28;20140;-57
2023/03/04 14:06:10;;;;;;;14.55;5.00;;;;;;;;;;5078496;28;20530;-57
2023/03/04 14:08:36;;;;;;;;;;;;;;;;;;5080264;28;20082;-57
2023/03/04 14:11:02;;;;;;;17.02;6.00;;;;;;;;;;5080171;28;19931;-58
2023/03/04 14:13:28;;;;;;;8.52;5.00;;;;;;;;;;5077536;28;20055;-58
2023/03/04 14:15:56;;;;;;;10.10;3.28;;;;;;;;;;5080304;28;20052;-57
2023/03/04 14:18:27;;;;;;;8.88;5.30;;;;;;;;;;5074965;27;20851;-58
2023/03/04 14:20:57;;;;;;;9.88;4.93;;;;;;;;;;5072410;28;20048;-58
2023/03/04 14:23:23;;;;;;;12.55;6.18;;;;;;;;;;5069522;28;20040;-58
2023/03/04 14:25:49;;;;;;;8.48;3.67;;;;;;;;;;5073654;28;21020;-57
2023/03/04 14:28:17;;;;;;;12.13;4.35;;;;;;;;;;5071503;28;20041;-58
2023/03/04 14:30:50;;;;;;;11.85;4.65;;;;;;;;;;5078640;28;20032;-57
2023/03/04 14:33:27;;;;;;;9.07;5.65;;;;;;;;;;5070281;28;20133;-57
2023/03/04 14:35:55;;;;;;;8.23;3.70;;;;;;;;;;5076411;28;20037;-57